sensor_id;sensor_type;location;lat;lon;timestamp;pressure;altitude;pressure_sealevel;temperature;humidity
80798;BME280;70202;52.238;10.680;2023-10-08T00:00:25;100574.63;;;14.60;93.84
80798;BME280;70202;52.238;10.680;2023-10-08T00:01:47;100575.59;;;14.59;93.92
80798;BME280;70202;52.238;10.680;2023-10-08T00:02:47;100579.22;;;14.59;93.83
80798;BME280;70202;52.238;10.680;2023-10-08T00:03:48;100560.59;;;14.48;94.01
80798;BME280;70202;52.238;10.680;2023-10-08T00:04:54;100581.22;;;14.56;94.18
80798;BME280;70202;52.238;10.680;2023-10-08T00:06:03;100577.75;;;14.52;94.30
80798;BME280;70202;52.238;10.680;2023-10-08T00:07:06;100558.44;;;14.36;94.38
80798;BME280;70202;52.238;10.680;2023-10-08T00:08:08;100575.22;;;14.47;94.06
80798;BME280;70202;52.238;10.680;2023-10-08T00:09:09;100589.81;;;14.48;94.42
80798;BME280;70202;52.238;10.680;2023-10-08T00:10:10;100579.91;;;14.45;94.75
80798;BME280;70202;52.238;10.680;2023-10-08T00:11:14;100588.19;;;14.44;94.91
80798;BME280;70202;52.238;10.680;2023-10-08T00:12:15;100577.44;;;14.39;94.80
80798;BME280;70202;52.238;10.680;2023-10-08T00:13:16;100583.81;;;14.40;94.84
80798;BME280;70202;52.238;10.680;2023-10-08T00:14:17;100579.31;;;14.39;95.17
80798;BME280;70202;52.238;10.680;2023-10-08T00:15:21;100584.88;;;14.37;95.05
80798;BME280;70202;52.238;10.680;2023-10-08T00:16:25;100574.28;;;14.30;94.91
80798;BME280;70202;52.238;10.680;2023-10-08T00:17:28;100569.94;;;14.25;95.11
80798;BME280;70202;52.238;10.680;2023-10-08T00:18:28;100577.13;;;14.28;94.95
80798;BME280;70202;52.238;10.680;2023-10-08T00:19:29;100591.56;;;14.32;95.52
80798;BME280;70202;52.238;10.680;2023-10-08T00:20:35;100570.38;;;14.16;95.51
80798;BME280;70202;52.238;10.680;2023-10-08T00:21:43;100607.25;;;14.28;95.36
80798;BME280;70202;52.238;10.680;2023-10-08T00:22:45;100601.28;;;14.20;95.62
80798;BME280;70202;52.238;10.680;2023-10-08T00:23:47;100601.78;;;14.28;96.18
80798;BME280;70202;52.238;10.680;2023-10-08T00:24:52;100611.78;;;14.29;95.44
80798;BME280;70202;52.238;10.680;2023-10-08T00:25:58;100602.94;;;14.22;95.80
80798;BME280;70202;52.238;10.680;2023-10-08T00:27:04;100610.88;;;14.29;95.75
80798;BME280;70202;52.238;10.680;2023-10-08T00:28:09;100613.63;;;14.29;95.78
80798;BME280;70202;52.238;10.680;2023-10-08T00:29:13;100624.81;;;14.24;96.06
80798;BME280;70202;52.238;10.680;2023-10-08T00:30:16;100624.97;;;14.21;95.47
80798;BME280;70202;52.238;10.680;2023-10-08T00:31:20;100609.94;;;14.11;95.67
80798;BME280;70202;52.238;10.680;2023-10-08T00:32:24;100622.13;;;14.22;96.19
80798;BME280;70202;52.238;10.680;2023-10-08T00:33:24;100600.75;;;14.12;95.96
80798;BME280;70202;52.238;10.680;2023-10-08T00:34:25;100629.47;;;14.22;96.27
80798;BME280;70202;52.238;10.680;2023-10-08T00:35:27;100616.22;;;14.13;96.31
80798;BME280;70202;52.238;10.680;2023-10-08T00:36:27;100624.97;;;14.21;96.31
80798;BME280;70202;52.238;10.680;2023-10-08T00:37:28;100584.53;;;14.07;96.56
80798;BME280;70202;52.238;10.680;2023-10-08T00:38:29;100586.19;;;14.11;96.45
80798;BME280;70202;52.238;10.680;2023-10-08T00:39:32;100595.78;;;14.20;95.95
80798;BME280;70202;52.238;10.680;2023-10-08T00:40:38;100577.88;;;14.13;96.63
80798;BME280;70202;52.238;10.680;2023-10-08T00:41:46;100595.78;;;14.20;96.69
80798;BME280;70202;52.238;10.680;2023-10-08T00:42:47;100582.78;;;14.06;96.44
80798;BME280;70202;52.238;10.680;2023-10-08T00:43:48;100611.41;;;14.18;96.31
80798;BME280;70202;52.238;10.680;2023-10-08T00:44:49;100606.16;;;14.13;96.81
80798;BME280;70202;52.238;10.680;2023-10-08T00:45:51;100621.47;;;14.17;96.63
80798;BME280;70202;52.238;10.680;2023-10-08T00:46:52;100625.19;;;14.16;96.34
80798;BME280;70202;52.238;10.680;2023-10-08T00:47:55;100617.09;;;14.13;96.63
80798;BME280;70202;52.238;10.680;2023-10-08T00:48:57;100619.03;;;14.11;96.13
80798;BME280;70202;52.238;10.680;2023-10-08T00:49:58;100625.56;;;14.09;96.33
80798;BME280;70202;52.238;10.680;2023-10-08T00:51:06;100624.88;;;14.04;96.47
80798;BME280;70202;52.238;10.680;2023-10-08T00:52:26;100633.03;;;14.05;96.28
80798;BME280;70202;52.238;10.680;2023-10-08T00:53:29;100643.19;;;14.03;96.27
80798;BME280;70202;52.238;10.680;2023-10-08T00:54:31;100640.56;;;14.00;96.54
80798;BME280;70202;52.238;10.680;2023-10-08T00:55:48;100638.28;;;13.91;96.27
80798;BME280;70202;52.238;10.680;2023-10-08T00:57:04;100644.63;;;13.91;96.12
80798;BME280;70202;52.238;10.680;2023-10-08T00:58:05;100657.38;;;13.92;96.22
80798;BME280;70202;52.238;10.680;2023-10-08T00:59:09;100633.28;;;13.80;96.62
80798;BME280;70202;52.238;10.680;2023-10-08T01:00:15;100652.78;;;13.93;96.64
80798;BME280;70202;52.238;10.680;2023-10-08T01:01:22;100656.47;;;13.92;96.25
80798;BME280;70202;52.238;10.680;2023-10-08T01:02:25;100650.19;;;13.90;96.55
80798;BME280;70202;52.238;10.680;2023-10-08T01:03:29;100659.34;;;13.89;96.53
80798;BME280;70202;52.238;10.680;2023-10-08T01:04:29;100673.22;;;13.86;96.95
80798;BME280;70202;52.238;10.680;2023-10-08T01:05:34;100663.72;;;13.74;96.67
80798;BME280;70202;52.238;10.680;2023-10-08T01:06:43;100690.78;;;13.80;97.04
80798;BME280;70202;52.238;10.680;2023-10-08T01:07:43;100685.63;;;13.74;96.69
80798;BME280;70202;52.238;10.680;2023-10-08T01:08:49;100671.47;;;13.64;97.14
80798;BME280;70202;52.238;10.680;2023-10-08T01:09:52;100691.88;;;13.76;97.19
80798;BME280;70202;52.238;10.680;2023-10-08T01:11:15;100691.09;;;13.74;97.33
80798;BME280;70202;52.238;10.680;2023-10-08T01:12:19;100693.00;;;13.72;97.43
80798;BME280;70202;52.238;10.680;2023-10-08T01:13:30;100678.91;;;13.61;97.32
80798;BME280;70202;52.238;10.680;2023-10-08T01:14:36;100698.88;;;13.63;97.45
80798;BME280;70202;52.238;10.680;2023-10-08T01:15:36;100709.56;;;13.69;97.03
80798;BME280;70202;52.238;10.680;2023-10-08T01:16:37;100710.88;;;13.60;97.35
80798;BME280;70202;52.238;10.680;2023-10-08T01:17:39;100703.00;;;13.53;97.23
80798;BME280;70202;52.238;10.680;2023-10-08T01:18:48;100728.88;;;13.66;97.55
80798;BME280;70202;52.238;10.680;2023-10-08T01:19:54;100729.84;;;13.65;97.56
80798;BME280;70202;52.238;10.680;2023-10-08T01:21:09;100737.38;;;13.60;97.20
80798;BME280;70202;52.238;10.680;2023-10-08T01:22:17;100727.97;;;13.45;97.20
80798;BME280;70202;52.238;10.680;2023-10-08T01:23:22;100747.97;;;13.47;96.33
80798;BME280;70202;52.238;10.680;2023-10-08T01:24:26;100753.22;;;13.31;95.79
80798;BME280;70202;52.238;10.680;2023-10-08T01:25:27;100760.25;;;13.15;95.37
80798;BME280;70202;52.238;10.680;2023-10-08T01:26:29;100754.66;;;12.96;95.26
80798;BME280;70202;52.238;10.680;2023-10-08T01:27:32;100769.78;;;12.83;95.53
80798;BME280;70202;52.238;10.680;2023-10-08T01:28:35;100773.03;;;12.70;95.33
80798;BME280;70202;52.238;10.680;2023-10-08T01:29:35;100769.81;;;12.59;95.55
80798;BME280;70202;52.238;10.680;2023-10-08T01:30:36;100760.34;;;12.46;95.54
80798;BME280;70202;52.238;10.680;2023-10-08T01:31:41;100776.53;;;12.50;95.83
80798;BME280;70202;52.238;10.680;2023-10-08T01:32:42;100781.34;;;12.44;95.24
80798;BME280;70202;52.238;10.680;2023-10-08T01:33:43;100774.34;;;12.37;95.71
80798;BME280;70202;52.238;10.680;2023-10-08T01:35:04;100781.06;;;12.28;95.44
80798;BME280;70202;52.238;10.680;2023-10-08T01:36:16;100764.44;;;12.11;95.45
80798;BME280;70202;52.238;10.680;2023-10-08T01:37:18;100787.78;;;12.19;95.57
80798;BME280;70202;52.238;10.680;2023-10-08T01:38:18;100792.50;;;12.14;95.02
80798;BME280;70202;52.238;10.680;2023-10-08T01:39:23;100798.97;;;12.12;94.94
80798;BME280;70202;52.238;10.680;2023-10-08T01:40:26;100805.44;;;12.09;94.87
80798;BME280;70202;52.238;10.680;2023-10-08T01:41:29;100794.63;;;12.06;95.28
80798;BME280;70202;52.238;10.680;2023-10-08T01:42:30;100777.69;;;11.96;95.13
80798;BME280;70202;52.238;10.680;2023-10-08T01:43:33;100803.66;;;12.08;95.01
80798;BME280;70202;52.238;10.680;2023-10-08T01:44:35;100794.56;;;12.08;95.13
80798;BME280;70202;52.238;10.680;2023-10-08T01:45:36;100790.00;;;12.08;95.08
80798;BME280;70202;52.238;10.680;2023-10-08T01:46:40;100788.88;;;12.14;95.22
80798;BME280;70202;52.238;10.680;2023-10-08T01:47:41;100772.72;;;12.08;94.68
80798;BME280;70202;52.238;10.680;2023-10-08T01:48:43;100799.63;;;12.18;94.59
80798;BME280;70202;52.238;10.680;2023-10-08T01:49:45;100793.38;;;12.15;94.52
80798;BME280;70202;52.238;10.680;2023-10-08T01:50:54;100787.97;;;12.13;94.54
80798;BME280;70202;52.238;10.680;2023-10-08T01:51:54;100791.50;;;12.17;94.67
80798;BME280;70202;52.238;10.680;2023-10-08T01:52:55;100800.19;;;12.28;94.25
80798;BME280;70202;52.238;10.680;2023-10-08T01:53:55;100802.91;;;12.28;94.58
80798;BME280;70202;52.238;10.680;2023-10-08T01:54:58;100812.72;;;12.34;94.44
80798;BME280;70202;52.238;10.680;2023-10-08T01:55:58;100810.88;;;12.34;94.33
80798;BME280;70202;52.238;10.680;2023-10-08T01:56:58;100828.03;;;12.38;94.47
80798;BME280;70202;52.238;10.680;2023-10-08T01:57:59;100810.75;;;12.37;94.07
80798;BME280;70202;52.238;10.680;2023-10-08T01:58:59;100823.38;;;12.40;94.22
80798;BME280;70202;52.238;10.680;2023-10-08T02:00:00;100821.56;;;12.40;94.19
80798;BME280;70202;52.238;10.680;2023-10-08T02:01:01;100793.75;;;12.29;94.37
80798;BME280;70202;52.238;10.680;2023-10-08T02:02:01;100824.13;;;12.45;94.37
80798;BME280;70202;52.238;10.680;2023-10-08T02:03:02;100817.03;;;12.39;94.29
80798;BME280;70202;52.238;10.680;2023-10-08T02:04:02;100829.47;;;12.48;93.95
80798;BME280;70202;52.238;10.680;2023-10-08T02:05:03;100821.22;;;12.49;94.32
80798;BME280;70202;52.238;10.680;2023-10-08T02:06:04;100826.63;;;12.51;94.51
80798;BME280;70202;52.238;10.680;2023-10-08T02:07:08;100804.16;;;12.43;94.00
80798;BME280;70202;52.238;10.680;2023-10-08T02:08:13;100822.00;;;12.53;93.51
80798;BME280;70202;52.238;10.680;2023-10-08T02:09:14;100824.72;;;12.53;94.06
80798;BME280;70202;52.238;10.680;2023-10-08T02:10:15;100807.66;;;12.46;93.71
80798;BME280;70202;52.238;10.680;2023-10-08T02:11:16;100821.03;;;12.54;93.30
80798;BME280;70202;52.238;10.680;2023-10-08T02:12:16;100818.34;;;12.52;93.31
80798;BME280;70202;52.238;10.680;2023-10-08T02:13:16;100824.72;;;12.53;93.20
80798;BME280;70202;52.238;10.680;2023-10-08T02:14:17;100820.16;;;12.54;93.55
80798;BME280;70202;52.238;10.680;2023-10-08T02:15:18;100810.31;;;12.48;93.44
80798;BME280;70202;52.238;10.680;2023-10-08T02:16:19;100823.63;;;12.57;93.35
80798;BME280;70202;52.238;10.680;2023-10-08T02:17:22;100799.34;;;12.49;93.52
80798;BME280;70202;52.238;10.680;2023-10-08T02:18:22;100822.56;;;12.61;93.06
80798;BME280;70202;52.238;10.680;2023-10-08T02:19:26;100820.75;;;12.62;93.02
80798;BME280;70202;52.238;10.680;2023-10-08T02:20:29;100825.19;;;12.64;93.05
80798;BME280;70202;52.238;10.680;2023-10-08T02:21:29;100822.44;;;12.64;93.28
80798;BME280;70202;52.238;10.680;2023-10-08T02:22:31;100796.38;;;12.56;93.24
80798;BME280;70202;52.238;10.680;2023-10-08T02:23:36;100811.41;;;12.67;93.20
80798;BME280;70202;52.238;10.680;2023-10-08T02:24:38;100801.44;;;12.66;93.08
80798;BME280;70202;52.238;10.680;2023-10-08T02:25:39;100799.41;;;12.71;93.37
80798;BME280;70202;52.238;10.680;2023-10-08T02:26:42;100806.72;;;12.71;93.20
80798;BME280;70202;52.238;10.680;2023-10-08T02:27:43;100806.06;;;12.64;93.39
80798;BME280;70202;52.238;10.680;2023-10-08T02:28:44;100811.53;;;12.64;93.30
80798;BME280;70202;52.238;10.680;2023-10-08T02:29:44;100826.56;;;12.76;93.03
80798;BME280;70202;52.238;10.680;2023-10-08T02:30:44;100822.03;;;12.75;92.79
80798;BME280;70202;52.238;10.680;2023-10-08T02:31:45;100814.72;;;12.75;92.97
80798;BME280;70202;52.238;10.680;2023-10-08T02:32:45;100821.09;;;12.76;92.53
80798;BME280;70202;52.238;10.680;2023-10-08T02:33:46;100815.84;;;12.70;92.72
80798;BME280;70202;52.238;10.680;2023-10-08T02:34:47;100826.56;;;12.76;93.05
80798;BME280;70202;52.238;10.680;2023-10-08T02:35:47;100832.84;;;12.78;92.78
80798;BME280;70202;52.238;10.680;2023-10-08T02:36:49;100822.22;;;12.70;92.76
80798;BME280;70202;52.238;10.680;2023-10-08T02:37:50;100839.25;;;12.77;92.67
80798;BME280;70202;52.238;10.680;2023-10-08T02:38:50;100838.38;;;12.76;92.80
80798;BME280;70202;52.238;10.680;2023-10-08T02:39:51;100846.56;;;12.76;92.42
80798;BME280;70202;52.238;10.680;2023-10-08T02:40:51;100816.94;;;12.66;92.84
80798;BME280;70202;52.238;10.680;2023-10-08T02:41:56;100843.94;;;12.73;92.75
80798;BME280;70202;52.238;10.680;2023-10-08T02:42:58;100844.91;;;12.72;92.35
80798;BME280;70202;52.238;10.680;2023-10-08T02:44:00;100834.22;;;12.66;92.59
80798;BME280;70202;52.238;10.680;2023-10-08T02:45:00;100826.03;;;12.66;92.82
80798;BME280;70202;52.238;10.680;2023-10-08T02:46:03;100825.88;;;12.69;92.71
80798;BME280;70202;52.238;10.680;2023-10-08T02:47:14;100821.19;;;12.73;92.96
80798;BME280;70202;52.238;10.680;2023-10-08T02:48:20;100802.50;;;12.62;93.00
80798;BME280;70202;52.238;10.680;2023-10-08T02:49:21;100814.72;;;12.75;93.69
80798;BME280;70202;52.238;10.680;2023-10-08T02:50:23;100802.06;;;12.73;93.23
80798;BME280;70202;52.238;10.680;2023-10-08T02:51:23;100814.66;;;12.77;93.51
80798;BME280;70202;52.238;10.680;2023-10-08T02:52:24;100821.91;;;12.78;93.47
80798;BME280;70202;52.238;10.680;2023-10-08T02:53:26;100822.81;;;12.79;93.99
80798;BME280;70202;52.238;10.680;2023-10-08T02:54:26;100801.28;;;12.69;94.14
80798;BME280;70202;52.238;10.680;2023-10-08T02:55:37;100809.25;;;12.75;93.91
80798;BME280;70202;52.238;10.680;2023-10-08T02:56:50;100787.81;;;12.65;93.83
80798;BME280;70202;52.238;10.680;2023-10-08T02:57:57;100821.78;;;12.81;94.38
80798;BME280;70202;52.238;10.680;2023-10-08T02:58:59;100721.16;;;12.23;94.04
80798;BME280;70202;52.238;10.680;2023-10-08T03:00:02;100812.78;;;12.79;93.69
80798;BME280;70202;52.238;10.680;2023-10-08T03:01:04;100805.66;;;12.75;93.90
80798;BME280;70202;52.238;10.680;2023-10-08T03:02:05;100812.63;;;12.82;93.71
80798;BME280;70202;52.238;10.680;2023-10-08T03:03:14;100801.88;;;12.77;94.04
80798;BME280;70202;52.238;10.680;2023-10-08T03:04:18;100808.03;;;12.83;93.93
80798;BME280;70202;52.238;10.680;2023-10-08T03:05:18;100795.28;;;12.83;93.81
80798;BME280;70202;52.238;10.680;2023-10-08T03:06:19;100781.09;;;12.73;93.96
80798;BME280;70202;52.238;10.680;2023-10-08T03:07:19;100810.75;;;12.84;94.32
80798;BME280;70202;52.238;10.680;2023-10-08T03:08:32;100801.84;;;12.79;93.99
80798;BME280;70202;52.238;10.680;2023-10-08T03:09:37;100814.34;;;12.85;94.10
80798;BME280;70202;52.238;10.680;2023-10-08T03:10:42;100815.25;;;12.85;94.23
80798;BME280;70202;52.238;10.680;2023-10-08T03:11:44;100821.59;;;12.86;94.13
80798;BME280;70202;52.238;10.680;2023-10-08T03:12:47;100826.09;;;12.87;94.49
80798;BME280;70202;52.238;10.680;2023-10-08T03:13:48;100817.97;;;12.85;94.36
80798;BME280;70202;52.238;10.680;2023-10-08T03:14:51;100814.28;;;12.86;94.36
80798;BME280;70202;52.238;10.680;2023-10-08T03:16:01;100824.28;;;12.87;94.65
80798;BME280;70202;52.238;10.680;2023-10-08T03:17:02;100822.50;;;12.86;94.66
80798;BME280;70202;52.238;10.680;2023-10-08T03:18:07;100825.22;;;12.86;94.20
80798;BME280;70202;52.238;10.680;2023-10-08T03:19:15;100840.75;;;12.86;94.64
80798;BME280;70202;52.238;10.680;2023-10-08T03:20:18;100848.94;;;12.86;94.82
80798;BME280;70202;52.238;10.680;2023-10-08T03:21:30;100850.72;;;12.87;94.45
80798;BME280;70202;52.238;10.680;2023-10-08T03:22:39;100829.22;;;12.77;94.04
80798;BME280;70202;52.238;10.680;2023-10-08T03:23:48;100848.94;;;12.86;94.55
80798;BME280;70202;52.238;10.680;2023-10-08T03:24:50;100850.88;;;12.84;93.89
80798;BME280;70202;52.238;10.680;2023-10-08T03:25:54;100860.84;;;12.85;94.03
80798;BME280;70202;52.238;10.680;2023-10-08T03:27:01;100856.34;;;12.84;94.18
80798;BME280;70202;52.238;10.680;2023-10-08T03:28:08;100867.25;;;12.84;94.37
80798;BME280;70202;52.238;10.680;2023-10-08T03:29:09;100864.53;;;12.84;94.27
80798;BME280;70202;52.238;10.680;2023-10-08T03:30:15;100848.53;;;12.73;94.34
80798;BME280;70202;52.238;10.680;2023-10-08T03:31:16;100869.16;;;12.82;94.09
80798;BME280;70202;52.238;10.680;2023-10-08T03:32:17;100875.56;;;12.81;94.04
80798;BME280;70202;52.238;10.680;2023-10-08T03:33:18;100850.44;;;12.71;94.42
80798;BME280;70202;52.238;10.680;2023-10-08T03:34:26;100864.66;;;12.81;94.37
80798;BME280;70202;52.238;10.680;2023-10-08T03:35:34;100860.94;;;12.82;94.62
80798;BME280;70202;52.238;10.680;2023-10-08T03:36:37;100861.84;;;12.82;94.74
80798;BME280;70202;52.238;10.680;2023-10-08T03:37:44;100871.84;;;12.83;94.53
80798;BME280;70202;52.238;10.680;2023-10-08T03:38:50;100862.72;;;12.83;94.56
80798;BME280;70202;52.238;10.680;2023-10-08T03:39:51;100866.38;;;12.83;94.28
80798;BME280;70202;52.238;10.680;2023-10-08T03:40:51;100863.66;;;12.83;94.67
80798;BME280;70202;52.238;10.680;2023-10-08T03:41:57;100863.66;;;12.83;94.29
80798;BME280;70202;52.238;10.680;2023-10-08T03:43:07;100870.88;;;12.84;94.85
80798;BME280;70202;52.238;10.680;2023-10-08T03:44:15;100857.31;;;12.81;94.90
80798;BME280;70202;52.238;10.680;2023-10-08T03:45:17;100851.16;;;12.76;94.68
80798;BME280;70202;52.238;10.680;2023-10-08T03:46:37;100860.13;;;12.80;94.83
80798;BME280;70202;52.238;10.680;2023-10-08T03:47:42;100871.78;;;12.85;94.83
80798;BME280;70202;52.238;10.680;2023-10-08T03:48:47;100870.81;;;12.86;94.64
80798;BME280;70202;52.238;10.680;2023-10-08T03:49:51;100859.34;;;12.76;95.06
80798;BME280;70202;52.238;10.680;2023-10-08T03:50:51;100863.94;;;12.75;94.85
80798;BME280;70202;52.238;10.680;2023-10-08T03:52:00;100882.63;;;12.86;94.86
80798;BME280;70202;52.238;10.680;2023-10-08T03:53:00;100863.94;;;12.75;94.82
80798;BME280;70202;52.238;10.680;2023-10-08T03:54:03;100879.91;;;12.86;94.91
80798;BME280;70202;52.238;10.680;2023-10-08T03:55:09;100890.81;;;12.88;95.31
80798;BME280;70202;52.238;10.680;2023-10-08T03:56:18;100890.81;;;12.88;95.15
80798;BME280;70202;52.238;10.680;2023-10-08T03:57:20;100865.63;;;12.78;95.29
80798;BME280;70202;52.238;10.680;2023-10-08T03:58:28;100887.09;;;12.89;94.94
80798;BME280;70202;52.238;10.680;2023-10-08T03:59:40;100865.59;;;12.80;94.89
80798;BME280;70202;52.238;10.680;2023-10-08T04:00:43;100876.16;;;12.89;95.12
80798;BME280;70202;52.238;10.680;2023-10-08T04:01:46;100873.44;;;12.89;94.85
80798;BME280;70202;52.238;10.680;2023-10-08T04:02:49;100872.56;;;12.88;94.93
80798;BME280;70202;52.238;10.680;2023-10-08T04:04:00;100870.69;;;12.89;95.53
80798;BME280;70202;52.238;10.680;2023-10-08T04:05:01;100873.44;;;12.89;95.24
80798;BME280;70202;52.238;10.680;2023-10-08T04:06:21;100868.97;;;12.86;95.48
80798;BME280;70202;52.238;10.680;2023-10-08T04:07:31;100881.63;;;12.89;95.06
80798;BME280;70202;52.238;10.680;2023-10-08T04:09:00;100884.56;;;12.84;95.03
80798;BME280;70202;52.238;10.680;2023-10-08T04:10:09;100868.44;;;12.76;94.90
80798;BME280;70202;52.238;10.680;2023-10-08T04:11:10;100884.56;;;12.84;94.90
80798;BME280;70202;52.238;10.680;2023-10-08T04:12:30;100890.03;;;12.84;94.93
80798;BME280;70202;52.238;10.680;2023-10-08T04:13:34;100878.59;;;12.73;94.48
80798;BME280;70202;52.238;10.680;2023-10-08T04:14:45;100895.53;;;12.83;94.96
80798;BME280;70202;52.238;10.680;2023-10-08T04:15:46;100896.50;;;12.82;94.45
80798;BME280;70202;52.238;10.680;2023-10-08T04:16:47;100905.66;;;12.81;94.68
80798;BME280;70202;52.238;10.680;2023-10-08T04:17:51;100903.03;;;12.77;94.74
80798;BME280;70202;52.238;10.680;2023-10-08T04:18:51;100899.41;;;12.77;94.69
80798;BME280;70202;52.238;10.680;2023-10-08T04:19:55;100891.50;;;12.69;94.70
80798;BME280;70202;52.238;10.680;2023-10-08T04:20:58;100903.09;;;12.76;95.15
80798;BME280;70202;52.238;10.680;2023-10-08T04:22:04;100878.88;;;12.65;94.85
80798;BME280;70202;52.238;10.680;2023-10-08T04:23:14;100863.34;;;12.67;94.80
80798;BME280;70202;52.238;10.680;2023-10-08T04:24:20;100881.22;;;12.76;95.05
80798;BME280;70202;52.238;10.680;2023-10-08T04:25:21;100886.69;;;12.76;95.10
80798;BME280;70202;52.238;10.680;2023-10-08T04:26:21;100894.13;;;12.72;95.43
80798;BME280;70202;52.238;10.680;2023-10-08T04:27:23;100909.44;;;12.76;95.17
80798;BME280;70202;52.238;10.680;2023-10-08T04:28:26;100909.44;;;12.76;95.46
80798;BME280;70202;52.238;10.680;2023-10-08T04:29:29;100915.81;;;12.77;94.92
80798;BME280;70202;52.238;10.680;2023-10-08T04:30:33;100893.59;;;12.63;95.24
80798;BME280;70202;52.238;10.680;2023-10-08T04:31:33;100919.50;;;12.76;95.09
80798;BME280;70202;52.238;10.680;2023-10-08T04:32:44;100906.00;;;12.71;94.99
80798;BME280;70202;52.238;10.680;2023-10-08T04:33:44;100905.94;;;12.73;94.93
80798;BME280;70202;52.238;10.680;2023-10-08T04:34:45;100923.19;;;12.75;95.48
80798;BME280;70202;52.238;10.680;2023-10-08T04:35:47;100930.53;;;12.73;94.91
80798;BME280;70202;52.238;10.680;2023-10-08T04:36:56;100909.28;;;12.58;95.55
80798;BME280;70202;52.238;10.680;2023-10-08T04:38:12;100945.06;;;12.75;95.27
80798;BME280;70202;52.238;10.680;2023-10-08T04:39:15;100940.47;;;12.75;95.60
80798;BME280;70202;52.238;10.680;2023-10-08T04:40:21;100939.03;;;12.65;95.63
80798;BME280;70202;52.238;10.680;2023-10-08T04:41:24;100954.16;;;12.75;95.66
80798;BME280;70202;52.238;10.680;2023-10-08T04:42:28;100954.19;;;12.74;95.61
80798;BME280;70202;52.238;10.680;2023-10-08T04:43:28;100949.66;;;12.73;95.57
80798;BME280;70202;52.238;10.680;2023-10-08T04:44:30;100944.28;;;12.71;95.11
80798;BME280;70202;52.238;10.680;2023-10-08T04:45:32;100934.50;;;12.64;95.28
80798;BME280;70202;52.238;10.680;2023-10-08T04:46:34;100936.34;;;12.64;95.76
80798;BME280;70202;52.238;10.680;2023-10-08T04:47:46;100931.78;;;12.64;95.69
80798;BME280;70202;52.238;10.680;2023-10-08T04:48:49;100936.06;;;12.71;95.55
80798;BME280;70202;52.238;10.680;2023-10-08T04:49:50;100918.06;;;12.66;95.78
80798;BME280;70202;52.238;10.680;2023-10-08T04:50:53;100929.66;;;12.72;96.10
80798;BME280;70202;52.238;10.680;2023-10-08T04:52:06;100914.22;;;12.71;95.75
80798;BME280;70202;52.238;10.680;2023-10-08T04:53:19;100912.72;;;12.63;95.68
80798;BME280;70202;52.238;10.680;2023-10-08T04:54:28;100924.28;;;12.69;95.71
80798;BME280;70202;52.238;10.680;2023-10-08T04:55:32;100909.13;;;12.61;95.88
80798;BME280;70202;52.238;10.680;2023-10-08T04:56:32;100911.94;;;12.59;95.83
80798;BME280;70202;52.238;10.680;2023-10-08T04:57:33;100923.47;;;12.67;96.15
80798;BME280;70202;52.238;10.680;2023-10-08T04:58:34;100932.56;;;12.68;95.86
80798;BME280;70202;52.238;10.680;2023-10-08T04:59:43;100919.84;;;12.67;95.92
80798;BME280;70202;52.238;10.680;2023-10-08T05:00:45;100931.75;;;12.66;95.99
80798;BME280;70202;52.238;10.680;2023-10-08T05:01:53;100925.31;;;12.67;96.07
80798;BME280;70202;52.238;10.680;2023-10-08T05:03:13;100915.56;;;12.60;96.22
80798;BME280;70202;52.238;10.680;2023-10-08T05:04:16;100928.06;;;12.67;95.85
80798;BME280;70202;52.238;10.680;2023-10-08T05:05:45;100923.56;;;12.64;95.99
80798;BME280;70202;52.238;10.680;2023-10-08T05:07:04;100932.91;;;12.59;96.16
80798;BME280;70202;52.238;10.680;2023-10-08T05:08:17;100923.13;;;12.51;96.26
80798;BME280;70202;52.238;10.680;2023-10-08T05:09:28;100934.78;;;12.57;96.24
80798;BME280;70202;52.238;10.680;2023-10-08T05:11:04;100960.94;;;12.64;95.47
80798;BME280;70202;52.238;10.680;2023-10-08T05:12:37;100974.69;;;12.62;95.80
80798;BME280;70202;52.238;10.680;2023-10-08T05:13:43;100966.75;;;12.55;96.01
80798;BME280;70202;52.238;10.680;2023-10-08T05:15:01;100978.34;;;12.61;96.04
80798;BME280;70202;52.238;10.680;2023-10-08T05:16:14;100981.31;;;12.55;95.86
80798;BME280;70202;52.238;10.680;2023-10-08T05:17:36;100990.22;;;12.60;96.17
80798;BME280;70202;52.238;10.680;2023-10-08T05:18:56;100980.25;;;12.59;96.20
80798;BME280;70202;52.238;10.680;2023-10-08T05:20:29;100951.59;;;12.46;95.83
80798;BME280;70202;52.238;10.680;2023-10-08T05:21:47;100960.59;;;12.48;96.09
80798;BME280;70202;52.238;10.680;2023-10-08T05:23:13;100975.78;;;12.57;96.09
80798;BME280;70202;52.238;10.680;2023-10-08T05:24:28;100965.91;;;12.52;96.19
80798;BME280;70202;52.238;10.680;2023-10-08T05:25:42;100947.91;;;12.47;96.28
80798;BME280;70202;52.238;10.680;2023-10-08T05:26:57;100964.91;;;12.55;96.02
80798;BME280;70202;52.238;10.680;2023-10-08T05:28:18;100960.34;;;12.56;96.20
80798;BME280;70202;52.238;10.680;2023-10-08T05:29:24;100972.22;;;12.55;96.53
80798;BME280;70202;52.238;10.680;2023-10-08T05:30:52;100933.78;;;12.34;96.23
80798;BME280;70202;52.238;10.680;2023-10-08T05:31:55;100982.19;;;12.56;96.42
80798;BME280;70202;52.238;10.680;2023-10-08T05:33:14;100977.63;;;12.56;96.20
80798;BME280;70202;52.238;10.680;2023-10-08T05:34:17;100960.75;;;12.45;96.66
80798;BME280;70202;52.238;10.680;2023-10-08T05:35:34;100968.78;;;12.49;96.46
80798;BME280;70202;52.238;10.680;2023-10-08T05:36:41;100989.44;;;12.57;96.31